»·PEaware :: AAL9790 KABQ-KPHX

AAL9790 :: KABQ-KPHX

FLIGHT INFORMATION

Flight Status: Arrived
Operator:
American Airlines
More flights by this operator :: More flights under this callsign
Pilot: Austin W. (7615)
Aircraft: AIRBUS A321
(A321)
More flights by this aircraft type
Origin: KABQ Albuquerque Intl Sunport
United States
Destination: KPHX Phoenix Sky Harbor Intl
United States
More flights between these airports :: More routes between these airports
Route: +RDRNR3 ZUN EAGUL6
File this flight plan on PilotEdge
Remarks:
Altitude:
(Current/Filed)
34,000ft
Speed:
(Current/Filed)
400kts
Departed: 25-Oct-20 07:53 AM
Arrived: 25-Oct-20 09:00 AM
Distance/Time
Traveled:
284nm/1:07
Distance/Time
To Go:
Arrived

Flight Plot

Page will automatically refresh every two minutes.


Map Options




Map Legend


Flown Route
Filed Route
Departure Airport
Arrival Airport
Navaid (VOR, NDB)
Fix

Horizontal Profiles

Position Reports

Time Latitude Longitude Heading Altitude Ground
Speed
25-Oct-20 07:28 35.046886 -106.615895 11 5326ft 0kts
25-Oct-20 07:29 35.046886 -106.615895 11 5326ft 0kts
25-Oct-20 07:30 35.046886 -106.615895 11 5326ft 0kts
25-Oct-20 07:31 35.046886 -106.615895 11 5326ft 0kts
25-Oct-20 07:32 35.046886 -106.615895 11 5326ft 0kts
25-Oct-20 07:33 35.046886 -106.615895 11 5326ft 0kts
25-Oct-20 07:34 35.046886 -106.615895 11 5326ft 0kts
25-Oct-20 07:35 35.046886 -106.615895 11 5326ft 0kts
25-Oct-20 07:36 35.046886 -106.615895 11 5326ft 0kts
25-Oct-20 07:37 35.046886 -106.615895 11 5326ft 0kts
25-Oct-20 07:38 35.046886 -106.615895 11 5326ft 0kts
25-Oct-20 07:39 35.046473 -106.615925 344 5326ft 2kts
25-Oct-20 07:40 35.046215 -106.615456 271 5326ft 0kts
25-Oct-20 07:41 35.046215 -106.615456 271 5326ft 0kts
25-Oct-20 07:42 35.046215 -106.615456 271 5326ft 0kts
25-Oct-20 07:43 35.046215 -106.615456 271 5326ft 0kts
25-Oct-20 07:44 35.046215 -106.615456 271 5326ft 0kts
25-Oct-20 07:45 35.046215 -106.615457 271 5326ft 0kts
25-Oct-20 07:46 35.046215 -106.615458 271 5326ft 0kts
25-Oct-20 07:47 35.046215 -106.615459 271 5326ft 0kts
25-Oct-20 07:48 35.046215 -106.615460 271 5326ft 0kts
25-Oct-20 07:49 35.045726 -106.617614 246 5326ft 15kts
25-Oct-20 07:50 35.045248 -106.621361 199 5326ft 0kts
25-Oct-20 07:51 35.044320 -106.620186 88 5326ft 13kts
25-Oct-20 07:52 35.044252 -106.586257 89 5613ft 183kts
25-Oct-20 07:53 35.048278 -106.521167 55 7371ft 216kts
25-Oct-20 07:54 35.089841 -106.540771 264 8258ft 240kts
25-Oct-20 07:55 35.081336 -106.626456 274 10618ft 261kts
25-Oct-20 07:56 35.090191 -106.724978 273 11948ft 313kts
25-Oct-20 07:57 35.101822 -106.830613 279 14560ft 318kts
25-Oct-20 07:58 35.109845 -106.910941 260 16069ft 326kts
25-Oct-20 07:59 35.095346 -106.981793 254 17519ft 330kts
25-Oct-20 08:00 35.081906 -107.044651 259 18388ft 343kts
25-Oct-20 08:01 35.059548 -107.158613 254 20484ft 346kts
25-Oct-20 08:02 35.037300 -107.273861 261 22234ft 354kts
25-Oct-20 08:03 35.033537 -107.395301 264 23800ft 362kts
25-Oct-20 08:04 35.029448 -107.519172 264 25202ft 368kts
25-Oct-20 08:05 35.025470 -107.644739 264 26457ft 374kts
25-Oct-20 08:06 35.021037 -107.772832 264 27584ft 380kts
25-Oct-20 08:07 35.016457 -107.902674 263 28622ft 385kts
25-Oct-20 08:08 35.011786 -108.033789 263 29631ft 387kts
25-Oct-20 08:09 35.006942 -108.164276 263 30804ft 383kts
25-Oct-20 08:10 35.002007 -108.293243 263 31880ft 379kts
25-Oct-20 08:11 34.997003 -108.420945 263 32847ft 375kts
25-Oct-20 08:12 34.991908 -108.547623 262 33731ft 371kts
25-Oct-20 08:13 34.986739 -108.673603 262 33870ft 371kts
25-Oct-20 08:14 34.981416 -108.799503 262 33868ft 371kts
25-Oct-20 08:15 34.975946 -108.925191 262 33880ft 371kts
25-Oct-20 08:16 34.970398 -109.050969 262 33828ft 372kts
25-Oct-20 08:17 34.958440 -109.175433 248 33816ft 366kts
25-Oct-20 08:18 34.916383 -109.288926 245 33851ft 367kts
25-Oct-20 08:19 34.875205 -109.402568 245 33897ft 366kts
25-Oct-20 08:20 34.833510 -109.516066 245 33907ft 367kts
25-Oct-20 08:21 34.791939 -109.629153 245 33881ft 366kts
25-Oct-20 08:22 34.750122 -109.742331 245 33820ft 367kts
25-Oct-20 08:23 34.708166 -109.855485 245 33821ft 367kts
25-Oct-20 08:24 34.666143 -109.968527 245 33843ft 366kts
25-Oct-20 08:25 34.624204 -110.080982 245 33851ft 366kts
25-Oct-20 08:26 34.582083 -110.193439 245 33653ft 361kts
25-Oct-20 08:27 34.542435 -110.299101 245 32642ft 334kts
25-Oct-20 08:28 34.503941 -110.401204 245 31648ft 329kts
25-Oct-20 08:29 34.465991 -110.501532 245 30658ft 325kts
25-Oct-20 08:30 34.428506 -110.600274 245 29668ft 320kts
25-Oct-20 08:31 34.391441 -110.697656 245 28676ft 316kts
25-Oct-20 08:32 34.354012 -110.793181 239 27644ft 312kts
25-Oct-20 08:33 34.296420 -110.869753 230 26123ft 303kts
25-Oct-20 08:34 34.239759 -110.943064 230 24538ft 293kts
25-Oct-20 08:35 34.184829 -111.013969 230 22975ft 286kts
25-Oct-20 08:36 34.130999 -111.083203 230 21424ft 279kts
25-Oct-20 08:37 34.078153 -111.151063 231 19909ft 273kts
25-Oct-20 08:38 34.032920 -111.209314 235 19156ft 275kts
25-Oct-20 08:39 33.979217 -111.277844 234 18231ft 290kts
25-Oct-20 08:40 33.922619 -111.350306 234 17257ft 300kts
25-Oct-20 08:41 33.881118 -111.403632 239 16540ft 302kts
25-Oct-20 08:42 33.836837 -111.487287 245 15190ft 294kts
25-Oct-20 08:43 33.793068 -111.570356 243 13753ft 295kts
25-Oct-20 08:44 33.749477 -111.652576 242 12611ft 291kts
25-Oct-20 08:45 33.706444 -111.732970 241 11451ft 280kts
25-Oct-20 08:46 33.664949 -111.811321 239 10278ft 273kts
25-Oct-20 08:47 33.623562 -111.887290 240 10044ft 269kts
25-Oct-20 08:48 33.584980 -111.961509 237 8728ft 276kts
25-Oct-20 08:49 33.545248 -112.037094 238 7633ft 262kts
25-Oct-20 08:50 33.525123 -112.117497 273 6400ft 255kts
25-Oct-20 08:51 33.523639 -112.201723 268 5088ft 250kts
25-Oct-20 08:52 33.517125 -112.281072 237 3964ft 232kts
25-Oct-20 08:53 33.463214 -112.288928 131 2997ft 211kts
25-Oct-20 08:54 33.443617 -112.223323 109 2802ft 211kts
25-Oct-20 08:56 33.440838 -112.155073 89 2791ft 186kts
25-Oct-20 08:57 33.440835 -112.096510 89 2293ft 157kts
25-Oct-20 08:58 33.440877 -112.046146 89 1453ft 149kts
25-Oct-20 08:59 33.440790 -112.002903 89 1149ft 77kts
25-Oct-20 09:00 33.439008 -111.998635 234 1149ft 11kts
25-Oct-20 09:01 33.438194 -112.000348 178 1149ft 0kts
25-Oct-20 09:02 33.437085 -112.000022 102 1149ft 2kts
25-Oct-20 09:03 33.437074 -111.999893 93 1149ft 0kts
25-Oct-20 09:04 33.437074 -111.999893 93 1149ft 0kts
25-Oct-20 09:05 33.437074 -111.999893 93 1149ft 0kts

Navigation Log

Ident Type
Flight plan parsing failed, navigation log unavailable